sensor_id;sensor_type;location;lat;lon;timestamp;pressure;altitude;pressure_sealevel;temperature;humidity
60240;BME280;46102;39.012;-7.064;2023-09-07T00:00:33;98360.50;;;22.93;53.81
60240;BME280;46102;39.012;-7.064;2023-09-07T00:02:33;98366.53;;;22.88;54.00
60240;BME280;46102;39.012;-7.064;2023-09-07T00:04:34;98375.69;;;22.85;54.14
60240;BME280;46102;39.012;-7.064;2023-09-07T00:06:35;98364.53;;;22.81;54.24
60240;BME280;46102;39.012;-7.064;2023-09-07T00:08:36;98362.97;;;22.77;54.65
60240;BME280;46102;39.012;-7.064;2023-09-07T00:10:37;98366.53;;;22.74;54.69
60240;BME280;46102;39.012;-7.064;2023-09-07T00:12:38;98372.13;;;22.74;54.70
60240;BME280;46102;39.012;-7.064;2023-09-07T00:14:39;98370.16;;;22.74;54.62
60240;BME280;46102;39.012;-7.064;2023-09-07T00:16:40;98372.13;;;22.74;55.02
60240;BME280;46102;39.012;-7.064;2023-09-07T00:18:41;98372.16;;;22.70;55.02
60240;BME280;46102;39.012;-7.064;2023-09-07T00:20:41;98369.75;;;22.69;55.16
60240;BME280;46102;39.012;-7.064;2023-09-07T00:22:42;98367.75;;;22.69;54.96
60240;BME280;46102;39.012;-7.064;2023-09-07T00:24:43;98362.56;;;22.64;55.40
60240;BME280;46102;39.012;-7.064;2023-09-07T00:26:45;98368.16;;;22.60;55.16
60240;BME280;46102;39.012;-7.064;2023-09-07T00:28:46;98366.19;;;22.57;55.39
60240;BME280;46102;39.012;-7.064;2023-09-07T00:30:47;98359.41;;;22.55;55.58
60240;BME280;46102;39.012;-7.064;2023-09-07T00:32:47;98356.59;;;22.55;55.58
60240;BME280;46102;39.012;-7.064;2023-09-07T00:34:48;98363.38;;;22.54;55.66
60240;BME280;46102;39.012;-7.064;2023-09-07T00:36:49;98364.59;;;22.56;55.58
60240;BME280;46102;39.012;-7.064;2023-09-07T00:38:50;98356.59;;;22.55;55.66
60240;BME280;46102;39.012;-7.064;2023-09-07T00:40:51;98357.00;;;22.53;55.94
60240;BME280;46102;39.012;-7.064;2023-09-07T00:42:52;98355.03;;;22.50;55.84
60240;BME280;46102;39.012;-7.064;2023-09-07T00:44:53;98355.03;;;22.50;55.73
60240;BME280;46102;39.012;-7.064;2023-09-07T00:46:56;98345.03;;;22.49;56.06
60240;BME280;46102;39.012;-7.064;2023-09-07T00:48:57;98355.81;;;22.40;56.53
60240;BME280;46102;39.012;-7.064;2023-09-07T00:50:58;98347.44;;;22.33;56.68
60240;BME280;46102;39.012;-7.064;2023-09-07T00:52:59;98343.88;;;22.32;56.55
60240;BME280;46102;39.012;-7.064;2023-09-07T00:55:03;98340.28;;;22.32;56.65
60240;BME280;46102;39.012;-7.064;2023-09-07T00:57:05;98346.25;;;22.27;56.90
60240;BME280;46102;39.012;-7.064;2023-09-07T00:59:08;98345.84;;;22.24;56.80
60240;BME280;46102;39.012;-7.064;2023-09-07T01:01:09;98343.88;;;22.21;57.19
60240;BME280;46102;39.012;-7.064;2023-09-07T01:03:10;98342.66;;;22.19;57.18
60240;BME280;46102;39.012;-7.064;2023-09-07T01:05:11;98333.88;;;22.17;57.14
60240;BME280;46102;39.012;-7.064;2023-09-07T01:07:24;98335.84;;;22.13;57.44
60240;BME280;46102;39.012;-7.064;2023-09-07T01:09:28;98343.44;;;22.12;57.45
60240;BME280;46102;39.012;-7.064;2023-09-07T01:11:36;98346.22;;;22.09;57.74
60240;BME280;46102;39.012;-7.064;2023-09-07T01:13:37;98341.47;;;22.06;57.59
60240;BME280;46102;39.012;-7.064;2023-09-07T01:15:38;98350.22;;;22.08;57.67
60240;BME280;46102;39.012;-7.064;2023-09-07T01:17:40;98342.25;;;22.02;58.16
60240;BME280;46102;39.012;-7.064;2023-09-07T01:19:41;98348.25;;;22.01;57.76
60240;BME280;46102;39.012;-7.064;2023-09-07T01:21:42;98350.22;;;21.97;57.94
60240;BME280;46102;39.012;-7.064;2023-09-07T01:23:44;98339.06;;;21.97;58.11
60240;BME280;46102;39.012;-7.064;2023-09-07T01:25:47;98349.41;;;21.93;58.25
60240;BME280;46102;39.012;-7.064;2023-09-07T01:27:49;98349.03;;;21.87;58.42
60240;BME280;46102;39.012;-7.064;2023-09-07T01:29:51;98358.19;;;21.88;58.36
60240;BME280;46102;39.012;-7.064;2023-09-07T01:31:52;98349.03;;;21.91;58.23
60240;BME280;46102;39.012;-7.064;2023-09-07T01:33:53;98350.22;;;21.90;58.56
60240;BME280;46102;39.012;-7.064;2023-09-07T01:35:54;98351.03;;;21.87;58.85
60240;BME280;46102;39.012;-7.064;2023-09-07T01:37:55;98349.81;;;21.88;58.49
60240;BME280;46102;39.012;-7.064;2023-09-07T01:39:56;98356.19;;;21.88;58.61
60240;BME280;46102;39.012;-7.064;2023-09-07T01:41:57;98349.81;;;21.88;58.54
60240;BME280;46102;39.012;-7.064;2023-09-07T01:43:57;98351.44;;;21.89;58.68
60240;BME280;46102;39.012;-7.064;2023-09-07T01:45:58;98351.81;;;21.87;59.30
60240;BME280;46102;39.012;-7.064;2023-09-07T01:47:59;98361.00;;;21.88;59.17
60240;BME280;46102;39.012;-7.064;2023-09-07T01:50:00;98356.19;;;21.88;59.03
60240;BME280;46102;39.012;-7.064;2023-09-07T01:52:02;98359.41;;;21.87;59.46
60240;BME280;46102;39.012;-7.064;2023-09-07T01:54:03;98356.19;;;21.88;59.20
60240;BME280;46102;39.012;-7.064;2023-09-07T01:56:04;98353.81;;;21.87;59.77
60240;BME280;46102;39.012;-7.064;2023-09-07T01:58:05;98352.22;;;21.86;59.79
60240;BME280;46102;39.012;-7.064;2023-09-07T02:00:06;98360.59;;;21.86;59.82
60240;BME280;46102;39.012;-7.064;2023-09-07T02:02:14;98359.41;;;21.87;59.83
60240;BME280;46102;39.012;-7.064;2023-09-07T02:04:14;98351.03;;;21.87;60.12
60240;BME280;46102;39.012;-7.064;2023-09-07T02:06:16;98346.22;;;21.83;60.38
60240;BME280;46102;39.012;-7.064;2023-09-07T02:08:17;98350.63;;;21.77;60.42
60240;BME280;46102;39.012;-7.064;2023-09-07T02:10:18;98355.00;;;21.78;60.40
60240;BME280;46102;39.012;-7.064;2023-09-07T02:12:18;98353.41;;;21.77;60.74
60240;BME280;46102;39.012;-7.064;2023-09-07T02:14:19;98356.59;;;21.76;60.95
60240;BME280;46102;39.012;-7.064;2023-09-07T02:16:20;98357.78;;;21.75;60.72
60240;BME280;46102;39.012;-7.064;2023-09-07T02:18:21;98359.00;;;21.77;61.10
60240;BME280;46102;39.012;-7.064;2023-09-07T02:20:21;98356.19;;;21.74;61.15
60240;BME280;46102;39.012;-7.064;2023-09-07T02:22:22;98355.81;;;21.75;61.05
60240;BME280;46102;39.012;-7.064;2023-09-07T02:24:23;98358.97;;;21.74;60.83
60240;BME280;46102;39.012;-7.064;2023-09-07T02:26:24;98358.59;;;21.75;60.58
60240;BME280;46102;39.012;-7.064;2023-09-07T02:28:25;98359.38;;;21.79;60.46
60240;BME280;46102;39.012;-7.064;2023-09-07T02:30:26;98349.44;;;21.82;60.42
60240;BME280;46102;39.012;-7.064;2023-09-07T02:32:27;98355.41;;;21.84;60.33
60240;BME280;46102;39.012;-7.064;2023-09-07T02:34:28;98358.19;;;21.84;60.49
60240;BME280;46102;39.012;-7.064;2023-09-07T02:36:29;98350.22;;;21.86;60.07
60240;BME280;46102;39.012;-7.064;2023-09-07T02:38:29;98354.63;;;21.87;60.31
60240;BME280;46102;39.012;-7.064;2023-09-07T02:40:31;98356.19;;;21.88;59.89
60240;BME280;46102;39.012;-7.064;2023-09-07T02:42:32;98358.19;;;21.88;60.01
60240;BME280;46102;39.012;-7.064;2023-09-07T02:44:32;98351.41;;;21.85;60.58
60240;BME280;46102;39.012;-7.064;2023-09-07T02:46:33;98360.97;;;21.84;60.54
60240;BME280;46102;39.012;-7.064;2023-09-07T02:48:34;98362.97;;;21.83;60.29
60240;BME280;46102;39.012;-7.064;2023-09-07T02:50:36;98366.56;;;21.84;60.84
60240;BME280;46102;39.012;-7.064;2023-09-07T02:52:37;98357.81;;;21.82;60.74
60240;BME280;46102;39.012;-7.064;2023-09-07T02:54:38;98360.59;;;21.82;60.83
60240;BME280;46102;39.012;-7.064;2023-09-07T02:56:39;98360.97;;;21.84;60.90
60240;BME280;46102;39.012;-7.064;2023-09-07T02:58:40;98355.81;;;21.82;61.21
60240;BME280;46102;39.012;-7.064;2023-09-07T03:00:44;98360.19;;;21.83;61.14
60240;BME280;46102;39.012;-7.064;2023-09-07T03:02:45;98358.59;;;21.82;61.52
60240;BME280;46102;39.012;-7.064;2023-09-07T03:04:46;98363.78;;;21.80;61.31
60240;BME280;46102;39.012;-7.064;2023-09-07T03:06:46;98361.78;;;21.81;61.05
60240;BME280;46102;39.012;-7.064;2023-09-07T03:08:47;98358.19;;;21.80;61.09
60240;BME280;46102;39.012;-7.064;2023-09-07T03:10:49;98359.00;;;21.81;61.17
60240;BME280;46102;39.012;-7.064;2023-09-07T03:12:49;98364.16;;;21.79;61.21
60240;BME280;46102;39.012;-7.064;2023-09-07T03:14:52;98365.75;;;21.76;61.16
60240;BME280;46102;39.012;-7.064;2023-09-07T03:16:54;98362.19;;;21.76;60.99
60240;BME280;46102;39.012;-7.064;2023-09-07T03:18:55;98361.78;;;21.74;60.90
60240;BME280;46102;39.012;-7.064;2023-09-07T03:20:59;98354.19;;;21.74;60.92
60240;BME280;46102;39.012;-7.064;2023-09-07T03:23:00;98361.38;;;21.72;60.81
60240;BME280;46102;39.012;-7.064;2023-09-07T03:25:02;98361.78;;;21.67;60.69
60240;BME280;46102;39.012;-7.064;2023-09-07T03:27:04;98358.97;;;21.63;60.85
60240;BME280;46102;39.012;-7.064;2023-09-07T03:29:06;98353.78;;;21.58;60.98
60240;BME280;46102;39.012;-7.064;2023-09-07T03:31:07;98350.56;;;21.56;61.34
60240;BME280;46102;39.012;-7.064;2023-09-07T03:33:07;98352.97;;;21.54;61.17
60240;BME280;46102;39.012;-7.064;2023-09-07T03:35:09;98350.94;;;21.47;61.57
60240;BME280;46102;39.012;-7.064;2023-09-07T03:37:11;98356.94;;;21.49;61.88
60240;BME280;46102;39.012;-7.064;2023-09-07T03:39:12;98361.28;;;21.39;62.27
60240;BME280;46102;39.012;-7.064;2023-09-07T03:41:13;98358.84;;;21.31;62.38
60240;BME280;46102;39.012;-7.064;2023-09-07T03:43:14;98367.22;;;21.31;62.42
60240;BME280;46102;39.012;-7.064;2023-09-07T03:45:15;98362.00;;;21.22;62.74
60240;BME280;46102;39.012;-7.064;2023-09-07T03:47:16;98363.97;;;21.18;63.18
60240;BME280;46102;39.012;-7.064;2023-09-07T03:49:17;98357.25;;;21.26;63.01
60240;BME280;46102;39.012;-7.064;2023-09-07T03:51:19;98362.44;;;21.31;62.71
60240;BME280;46102;39.012;-7.064;2023-09-07T03:53:20;98352.06;;;21.32;62.89
60240;BME280;46102;39.012;-7.064;2023-09-07T03:55:21;98358.47;;;21.36;62.35
60240;BME280;46102;39.012;-7.064;2023-09-07T03:57:22;98352.47;;;21.34;62.61
60240;BME280;46102;39.012;-7.064;2023-09-07T03:59:23;98359.28;;;21.33;62.99
60240;BME280;46102;39.012;-7.064;2023-09-07T04:01:24;98358.06;;;21.34;62.99
60240;BME280;46102;39.012;-7.064;2023-09-07T04:03:25;98361.66;;;21.31;62.96
60240;BME280;46102;39.012;-7.064;2023-09-07T04:05:26;98367.22;;;21.31;63.25
60240;BME280;46102;39.012;-7.064;2023-09-07T04:07:27;98370.00;;;21.27;63.00
60240;BME280;46102;39.012;-7.064;2023-09-07T04:09:28;98376.38;;;21.28;63.25
60240;BME280;46102;39.012;-7.064;2023-09-07T04:11:29;98369.22;;;21.30;63.58
60240;BME280;46102;39.012;-7.064;2023-09-07T04:13:29;98371.19;;;21.30;63.44
60240;BME280;46102;39.012;-7.064;2023-09-07T04:15:30;98369.59;;;21.29;63.68
60240;BME280;46102;39.012;-7.064;2023-09-07T04:17:32;98368.03;;;21.31;63.44
60240;BME280;46102;39.012;-7.064;2023-09-07T04:19:41;98371.22;;;21.33;63.76
60240;BME280;46102;39.012;-7.064;2023-09-07T04:21:41;98369.63;;;21.36;63.63
60240;BME280;46102;39.012;-7.064;2023-09-07T04:23:42;98366.44;;;21.37;63.52
60240;BME280;46102;39.012;-7.064;2023-09-07T04:25:43;98378.00;;;21.36;63.57
60240;BME280;46102;39.012;-7.064;2023-09-07T04:27:46;98371.63;;;21.35;63.75
60240;BME280;46102;39.012;-7.064;2023-09-07T04:29:47;98371.63;;;21.39;63.31
60240;BME280;46102;39.012;-7.064;2023-09-07T04:31:50;98361.66;;;21.38;63.52
60240;BME280;46102;39.012;-7.064;2023-09-07T04:33:51;98364.06;;;21.39;63.73
60240;BME280;46102;39.012;-7.064;2023-09-07T04:35:52;98369.66;;;21.39;63.38
60240;BME280;46102;39.012;-7.064;2023-09-07T04:37:52;98363.25;;;21.35;63.45
60240;BME280;46102;39.012;-7.064;2023-09-07T04:39:53;98367.63;;;21.33;63.57
60240;BME280;46102;39.012;-7.064;2023-09-07T04:41:55;98370.41;;;21.29;64.16
60240;BME280;46102;39.012;-7.064;2023-09-07T04:43:56;98374.41;;;21.28;63.81
60240;BME280;46102;39.012;-7.064;2023-09-07T04:45:57;98378.38;;;21.24;64.18
60240;BME280;46102;39.012;-7.064;2023-09-07T04:47:58;98369.59;;;21.25;63.78
60240;BME280;46102;39.012;-7.064;2023-09-07T04:49:59;98368.78;;;21.21;64.15
60240;BME280;46102;39.012;-7.064;2023-09-07T04:52:00;98373.97;;;21.19;64.19
60240;BME280;46102;39.012;-7.064;2023-09-07T04:54:01;98370.75;;;21.17;64.10
60240;BME280;46102;39.012;-7.064;2023-09-07T04:56:02;98372.34;;;21.14;64.55
60240;BME280;46102;39.012;-7.064;2023-09-07T04:58:04;98365.19;;;21.20;64.00
60240;BME280;46102;39.012;-7.064;2023-09-07T05:00:06;98374.38;;;21.21;64.38
60240;BME280;46102;39.012;-7.064;2023-09-07T05:02:08;98373.56;;;21.24;64.16
60240;BME280;46102;39.012;-7.064;2023-09-07T05:04:09;98377.56;;;21.27;64.04
60240;BME280;46102;39.012;-7.064;2023-09-07T05:06:11;98368.41;;;21.26;64.31
60240;BME280;46102;39.012;-7.064;2023-09-07T05:08:12;98370.78;;;21.28;63.94
60240;BME280;46102;39.012;-7.064;2023-09-07T05:10:13;98370.00;;;21.27;64.09
60240;BME280;46102;39.012;-7.064;2023-09-07T05:12:14;98372.78;;;21.27;64.23
60240;BME280;46102;39.012;-7.064;2023-09-07T05:14:18;98377.59;;;21.30;63.90
60240;BME280;46102;39.012;-7.064;2023-09-07T05:16:19;98372.81;;;21.31;63.78
60240;BME280;46102;39.012;-7.064;2023-09-07T05:18:20;98376.00;;;21.33;64.09
60240;BME280;46102;39.012;-7.064;2023-09-07T05:20:21;98378.00;;;21.32;63.64
60240;BME280;46102;39.012;-7.064;2023-09-07T05:22:23;98372.00;;;21.34;63.88
60240;BME280;46102;39.012;-7.064;2023-09-07T05:24:24;98376.78;;;21.33;63.65
60240;BME280;46102;39.012;-7.064;2023-09-07T05:26:26;98374.00;;;21.33;63.99
60240;BME280;46102;39.012;-7.064;2023-09-07T05:28:27;98377.19;;;21.32;64.05
60240;BME280;46102;39.012;-7.064;2023-09-07T05:30:30;98373.59;;;21.31;63.83
60240;BME280;46102;39.012;-7.064;2023-09-07T05:32:31;98382.75;;;21.28;64.23
60240;BME280;46102;39.012;-7.064;2023-09-07T05:34:32;98387.13;;;21.29;63.96
60240;BME280;46102;39.012;-7.064;2023-09-07T05:36:32;98398.28;;;21.26;63.90
60240;BME280;46102;39.012;-7.064;2023-09-07T05:38:33;98398.66;;;21.20;64.34
60240;BME280;46102;39.012;-7.064;2023-09-07T05:40:36;98388.69;;;21.16;64.19
60240;BME280;46102;39.012;-7.064;2023-09-07T05:42:37;98400.63;;;21.13;64.36
60240;BME280;46102;39.012;-7.064;2023-09-07T05:44:39;98399.81;;;21.09;64.95
60240;BME280;46102;39.012;-7.064;2023-09-07T05:46:40;98395.03;;;21.09;64.73
60240;BME280;46102;39.012;-7.064;2023-09-07T05:48:41;98402.22;;;21.10;64.66
60240;BME280;46102;39.012;-7.064;2023-09-07T05:50:42;98401.81;;;21.15;65.09
60240;BME280;46102;39.012;-7.064;2023-09-07T05:52:43;98404.66;;;21.19;64.99
60240;BME280;46102;39.012;-7.064;2023-09-07T05:54:44;98413.44;;;21.21;64.96
60240;BME280;46102;39.012;-7.064;2023-09-07T05:56:45;98410.22;;;21.23;64.70
60240;BME280;46102;39.012;-7.064;2023-09-07T05:58:46;98413.44;;;21.21;65.05
60240;BME280;46102;39.012;-7.064;2023-09-07T06:00:46;98416.22;;;21.21;64.94
60240;BME280;46102;39.012;-7.064;2023-09-07T06:02:47;98408.63;;;21.21;64.77
60240;BME280;46102;39.012;-7.064;2023-09-07T06:04:49;98410.22;;;21.23;64.83
60240;BME280;46102;39.012;-7.064;2023-09-07T06:06:50;98410.63;;;21.25;64.91
60240;BME280;46102;39.012;-7.064;2023-09-07T06:08:51;98409.47;;;21.26;65.06
60240;BME280;46102;39.012;-7.064;2023-09-07T06:10:54;98416.22;;;21.25;65.08
60240;BME280;46102;39.012;-7.064;2023-09-07T06:12:55;98406.25;;;21.27;64.84
60240;BME280;46102;39.012;-7.064;2023-09-07T06:14:56;98406.66;;;21.29;64.88
60240;BME280;46102;39.012;-7.064;2023-09-07T06:16:57;98400.31;;;21.32;64.52
60240;BME280;46102;39.012;-7.064;2023-09-07T06:18:58;98404.31;;;21.35;64.73
60240;BME280;46102;39.012;-7.064;2023-09-07T06:20:59;98406.69;;;21.36;64.90
60240;BME280;46102;39.012;-7.064;2023-09-07T06:23:00;98411.09;;;21.37;64.51
60240;BME280;46102;39.012;-7.064;2023-09-07T06:25:01;98414.69;;;21.38;65.03
60240;BME280;46102;39.012;-7.064;2023-09-07T06:27:01;98412.28;;;21.40;64.69
60240;BME280;46102;39.012;-7.064;2023-09-07T06:29:02;98421.09;;;21.42;65.27
60240;BME280;46102;39.012;-7.064;2023-09-07T06:31:03;98433.50;;;21.48;64.92
60240;BME280;46102;39.012;-7.064;2023-09-07T06:33:04;98421.16;;;21.53;64.81
60240;BME280;46102;39.012;-7.064;2023-09-07T06:35:06;98431.91;;;21.58;64.71
60240;BME280;46102;39.012;-7.064;2023-09-07T06:37:07;98432.72;;;21.62;64.56
60240;BME280;46102;39.012;-7.064;2023-09-07T06:39:09;98433.56;;;21.66;64.65
60240;BME280;46102;39.012;-7.064;2023-09-07T06:41:10;98439.53;;;21.72;64.18
60240;BME280;46102;39.012;-7.064;2023-09-07T06:43:11;98443.13;;;21.76;64.47
60240;BME280;46102;39.012;-7.064;2023-09-07T06:45:12;98445.13;;;21.79;64.20
60240;BME280;46102;39.012;-7.064;2023-09-07T06:47:13;98441.16;;;21.80;64.08
60240;BME280;46102;39.012;-7.064;2023-09-07T06:49:15;98435.97;;;21.82;64.26
60240;BME280;46102;39.012;-7.064;2023-09-07T06:51:16;98437.19;;;21.85;64.45
60240;BME280;46102;39.012;-7.064;2023-09-07T06:53:17;98435.97;;;21.86;64.16
60240;BME280;46102;39.012;-7.064;2023-09-07T06:55:17;98443.16;;;21.90;64.11
60240;BME280;46102;39.012;-7.064;2023-09-07T06:57:19;98435.97;;;21.93;63.72
60240;BME280;46102;39.012;-7.064;2023-09-07T06:59:20;98439.59;;;21.97;64.20
60240;BME280;46102;39.012;-7.064;2023-09-07T07:01:21;98439.19;;;21.95;63.94
60240;BME280;46102;39.012;-7.064;2023-09-07T07:03:23;98438.38;;;21.94;64.08
60240;BME280;46102;39.012;-7.064;2023-09-07T07:05:23;98441.59;;;21.96;63.96
60240;BME280;46102;39.012;-7.064;2023-09-07T07:07:29;98440.00;;;21.99;63.77
60240;BME280;46102;39.012;-7.064;2023-09-07T07:09:30;98450.38;;;21.98;63.64
60240;BME280;46102;39.012;-7.064;2023-09-07T07:11:33;98458.72;;;22.02;63.61
60240;BME280;46102;39.012;-7.064;2023-09-07T07:13:34;98455.97;;;22.06;63.99
60240;BME280;46102;39.012;-7.064;2023-09-07T07:15:35;98459.19;;;22.11;63.81
60240;BME280;46102;39.012;-7.064;2023-09-07T07:17:36;98451.97;;;22.17;63.47
60240;BME280;46102;39.012;-7.064;2023-09-07T07:19:38;98446.06;;;22.22;63.40
60240;BME280;46102;39.012;-7.064;2023-09-07T07:21:39;98448.44;;;22.28;63.55
60240;BME280;46102;39.012;-7.064;2023-09-07T07:23:43;98444.84;;;22.31;63.38
60240;BME280;46102;39.012;-7.064;2023-09-07T07:25:44;98450.84;;;22.36;63.30
60240;BME280;46102;39.012;-7.064;2023-09-07T07:27:45;98446.03;;;22.44;62.76
60240;BME280;46102;39.012;-7.064;2023-09-07T07:29:48;98457.63;;;22.50;62.57
60240;BME280;46102;39.012;-7.064;2023-09-07T07:31:49;98455.63;;;22.57;62.45
60240;BME280;46102;39.012;-7.064;2023-09-07T07:33:50;98458.00;;;22.62;62.22
60240;BME280;46102;39.012;-7.064;2023-09-07T07:35:51;98456.00;;;22.66;62.30
60240;BME280;46102;39.012;-7.064;2023-09-07T07:37:52;98453.22;;;22.70;61.73
60240;BME280;46102;39.012;-7.064;2023-09-07T07:39:53;98456.00;;;22.77;61.85
60240;BME280;46102;39.012;-7.064;2023-09-07T07:41:54;98459.59;;;22.89;61.35
60240;BME280;46102;39.012;-7.064;2023-09-07T07:43:55;98454.41;;;23.01;60.96
60240;BME280;46102;39.012;-7.064;2023-09-07T07:45:58;98454.34;;;23.23;60.36
60240;BME280;46102;39.012;-7.064;2023-09-07T07:48:00;98461.50;;;23.38;59.31
60240;BME280;46102;39.012;-7.064;2023-09-07T07:50:03;98458.63;;;23.53;58.40
60240;BME280;46102;39.012;-7.064;2023-09-07T07:52:04;98463.75;;;23.68;57.79
60240;BME280;46102;39.012;-7.064;2023-09-07T07:54:05;98448.16;;;23.78;56.98
60240;BME280;46102;39.012;-7.064;2023-09-07T07:56:14;98454.81;;;23.99;56.17
60240;BME280;46102;39.012;-7.064;2023-09-07T07:58:15;98470.34;;;24.14;56.05
60240;BME280;46102;39.012;-7.064;2023-09-07T08:00:16;98464.31;;;24.19;55.70
60240;BME280;46102;39.012;-7.064;2023-09-07T08:02:25;98469.47;;;24.24;55.34
60240;BME280;46102;39.012;-7.064;2023-09-07T08:04:26;98481.78;;;24.38;55.02
60240;BME280;46102;39.012;-7.064;2023-09-07T08:06:27;98471.31;;;24.49;54.50
60240;BME280;46102;39.012;-7.064;2023-09-07T08:08:28;98478.47;;;24.57;54.52
60240;BME280;46102;39.012;-7.064;2023-09-07T08:10:32;98482.38;;;24.70;54.18
60240;BME280;46102;39.012;-7.064;2023-09-07T08:12:33;98477.53;;;24.75;53.00
60240;BME280;46102;39.012;-7.064;2023-09-07T08:14:35;98483.06;;;24.82;53.42
60240;BME280;46102;39.012;-7.064;2023-09-07T08:16:37;98487.44;;;24.83;53.20
60240;BME280;46102;39.012;-7.064;2023-09-07T08:18:38;98483.38;;;24.91;52.79
60240;BME280;46102;39.012;-7.064;2023-09-07T08:20:40;98485.31;;;24.98;52.32
60240;BME280;46102;39.012;-7.064;2023-09-07T08:22:42;98488.53;;;24.96;52.04
60240;BME280;46102;39.012;-7.064;2023-09-07T08:24:44;98496.63;;;24.87;52.33
60240;BME280;46102;39.012;-7.064;2023-09-07T08:26:46;98492.66;;;24.84;52.00
60240;BME280;46102;39.012;-7.064;2023-09-07T08:28:51;98495.13;;;24.75;52.06
60240;BME280;46102;39.012;-7.064;2023-09-07T08:30:52;98497.50;;;24.77;51.84
60240;BME280;46102;39.012;-7.064;2023-09-07T08:32:53;98502.25;;;24.83;52.04
60240;BME280;46102;39.012;-7.064;2023-09-07T08:34:55;98495.25;;;25.06;51.58
60240;BME280;46102;39.012;-7.064;2023-09-07T08:36:58;98500.25;;;25.29;50.70
60240;BME280;46102;39.012;-7.064;2023-09-07T08:39:01;98508.09;;;25.45;50.58
60240;BME280;46102;39.012;-7.064;2023-09-07T08:41:06;98503.97;;;25.57;50.47
60240;BME280;46102;39.012;-7.064;2023-09-07T08:43:09;98502.34;;;25.55;50.10
60240;BME280;46102;39.012;-7.064;2023-09-07T08:45:14;98505.91;;;25.60;49.74
60240;BME280;46102;39.012;-7.064;2023-09-07T08:47:19;98512.00;;;25.54;49.59
60240;BME280;46102;39.012;-7.064;2023-09-07T08:49:21;98507.94;;;25.59;49.53
60240;BME280;46102;39.012;-7.064;2023-09-07T08:51:24;98511.25;;;25.50;49.36
60240;BME280;46102;39.012;-7.064;2023-09-07T08:53:30;98515.31;;;25.46;49.29
60240;BME280;46102;39.012;-7.064;2023-09-07T08:55:32;98517.34;;;25.42;49.73
60240;BME280;46102;39.012;-7.064;2023-09-07T08:57:33;98506.00;;;25.52;49.18
60240;BME280;46102;39.012;-7.064;2023-09-07T08:59:34;98508.81;;;25.52;49.31
60240;BME280;46102;39.012;-7.064;2023-09-07T09:01:36;98508.50;;;25.47;49.57
60240;BME280;46102;39.012;-7.064;2023-09-07T09:03:37;98508.13;;;25.41;49.86
60240;BME280;46102;39.012;-7.064;2023-09-07T09:05:39;98506.84;;;25.49;49.47
60240;BME280;46102;39.012;-7.064;2023-09-07T09:07:40;98505.13;;;25.59;49.16
60240;BME280;46102;39.012;-7.064;2023-09-07T09:09:41;98510.25;;;25.68;49.22
60240;BME280;46102;39.012;-7.064;2023-09-07T09:11:42;98513.25;;;25.84;48.42
60240;BME280;46102;39.012;-7.064;2023-09-07T09:13:43;98500.47;;;26.10;48.02
60240;BME280;46102;39.012;-7.064;2023-09-07T09:15:44;98493.59;;;26.42;47.19
60240;BME280;46102;39.012;-7.064;2023-09-07T09:17:44;98495.06;;;26.77;46.45
60240;BME280;46102;39.012;-7.064;2023-09-07T09:19:45;98496.56;;;27.06;45.59
60240;BME280;46102;39.012;-7.064;2023-09-07T09:21:46;98499.81;;;27.28;44.82
60240;BME280;46102;39.012;-7.064;2023-09-07T09:23:49;98501.88;;;27.47;44.57
60240;BME280;46102;39.012;-7.064;2023-09-07T09:25:51;98495.22;;;27.57;44.85
60240;BME280;46102;39.012;-7.064;2023-09-07T09:27:51;98494.28;;;27.84;44.28
60240;BME280;46102;39.012;-7.064;2023-09-07T09:29:52;98500.09;;;28.13;43.18
60240;BME280;46102;39.012;-7.064;2023-09-07T09:31:53;98500.56;;;28.28;42.79
60240;BME280;46102;39.012;-7.064;2023-09-07T09:33:55;98493.69;;;28.29;42.77
60240;BME280;46102;39.012;-7.064;2023-09-07T09:35:56;98496.66;;;28.06;43.14
60240;BME280;46102;39.012;-7.064;2023-09-07T09:38:01;98502.31;;;27.86;44.27
60240;BME280;46102;39.012;-7.064;2023-09-07T09:40:05;98496.78;;;27.98;44.30
60240;BME280;46102;39.012;-7.064;2023-09-07T09:42:06;98502.38;;;28.18;43.77
60240;BME280;46102;39.012;-7.064;2023-09-07T09:44:07;98505.91;;;28.22;44.60
60240;BME280;46102;39.012;-7.064;2023-09-07T09:46:09;98506.53;;;28.14;44.84
60240;BME280;46102;39.012;-7.064;2023-09-07T09:48:11;98511.63;;;28.19;44.82
60240;BME280;46102;39.012;-7.064;2023-09-07T09:50:12;98508.31;;;27.88;45.18
60240;BME280;46102;39.012;-7.064;2023-09-07T09:52:13;98508.78;;;27.62;46.03
60240;BME280;46102;39.012;-7.064;2023-09-07T09:54:16;98511.38;;;27.53;46.97
60240;BME280;46102;39.012;-7.064;2023-09-07T09:56:17;98506.47;;;27.57;47.58
60240;BME280;46102;39.012;-7.064;2023-09-07T09:58:18;98499.47;;;27.66;47.51
60240;BME280;46102;39.012;-7.064;2023-09-07T10:00:19;98507.56;;;27.64;46.53
60240;BME280;46102;39.012;-7.064;2023-09-07T10:02:20;98503.28;;;27.55;47.38
60240;BME280;46102;39.012;-7.064;2023-09-07T10:04:22;98501.28;;;27.36;48.46
60240;BME280;46102;39.012;-7.064;2023-09-07T10:06:28;98505.69;;;27.13;49.25
60240;BME280;46102;39.012;-7.064;2023-09-07T10:08:30;98492.47;;;27.10;49.23
60240;BME280;46102;39.012;-7.064;2023-09-07T10:10:33;98498.97;;;27.07;49.82
60240;BME280;46102;39.012;-7.064;2023-09-07T10:12:45;98493.50;;;26.96;50.19
60240;BME280;46102;39.012;-7.064;2023-09-07T10:14:46;98494.16;;;27.04;50.61
60240;BME280;46102;39.012;-7.064;2023-09-07T10:16:52;98496.44;;;27.13;50.71
60240;BME280;46102;39.012;-7.064;2023-09-07T10:18:55;98495.13;;;27.41;49.80
60240;BME280;46102;39.012;-7.064;2023-09-07T10:20:58;98496.09;;;27.54;49.55
60240;BME280;46102;39.012;-7.064;2023-09-07T10:23:03;98493.97;;;27.98;48.53
60240;BME280;46102;39.012;-7.064;2023-09-07T10:25:04;98499.50;;;28.38;47.30
60240;BME280;46102;39.012;-7.064;2023-09-07T10:27:08;98497.00;;;28.60;47.24
60240;BME280;46102;39.012;-7.064;2023-09-07T10:29:10;98503.84;;;28.43;47.29
60240;BME280;46102;39.012;-7.064;2023-09-07T10:31:18;98499.34;;;27.93;48.38
60240;BME280;46102;39.012;-7.064;2023-09-07T10:33:22;98497.75;;;27.52;49.91
60240;BME280;46102;39.012;-7.064;2023-09-07T10:35:23;98500.69;;;27.45;50.03